EJU6BA LFBD-LIEO
Flight info
| Callsign | EJU6BA |
|---|---|
| Flight time | 1h 19m |
| Altitude | 37000 |
| Route | OBLOC DCT SECHE DCT SOVET DCT FJR DCT ROVOT DCT PADKO DCT STP DCT OMARD DCT VAREK DCT LOKDU M623 PELOS DCT IPROM DCT MINKA |
| Aircraft | A320/M-SDE3FGHIRWY/LB1 |
Departure
| Time | 2026-05-06 16:19 |
|---|---|
| Airport | Bordeaux–Mérignac Airport (LFBD) |
Arrival
| Time | 2026-05-06 17:38 |
|---|---|
| Airport | Olbia Costa Smeralda Airport (LIEO) |
| Time | Latitude | Longitude | Altitude | Speed | Heading |
|---|---|---|---|---|---|
| 2026-05-06 16:12 | 44.82891 | -0.70083 | 169 ft | 0 kts | 57° |
| 2026-05-06 16:14 | 44.82883 | -0.70100 | 170 ft | 3 kts | 57° |
| 2026-05-06 16:14 | 44.82872 | -0.70125 | 170 ft | 3 kts | 57° |
| 2026-05-06 16:14 | 44.82861 | -0.70150 | 170 ft | 3 kts | 57° |
| 2026-05-06 16:14 | 44.82849 | -0.70174 | 170 ft | 3 kts | 57° |
| 2026-05-06 16:15 | 44.82838 | -0.70199 | 170 ft | 3 kts | 57° |
| 2026-05-06 16:15 | 44.82827 | -0.70223 | 170 ft | 3 kts | 57° |
| 2026-05-06 16:15 | 44.82823 | -0.70231 | 170 ft | 0 kts | 57° |
| 2026-05-06 16:16 | 44.82820 | -0.70165 | 169 ft | 14 kts | 126° |
| 2026-05-06 16:16 | 44.82794 | -0.70157 | 170 ft | 8 kts | 162° |
| 2026-05-06 16:17 | 44.82751 | -0.70033 | 169 ft | 16 kts | 108° |
| 2026-05-06 16:17 | 44.82685 | -0.69950 | 170 ft | 12 kts | 191° |
| 2026-05-06 16:17 | 44.82615 | -0.69978 | 172 ft | 9 kts | 199° |
| 2026-05-06 16:17 | 44.82563 | -0.70015 | 171 ft | 8 kts | 225° |
| 2026-05-06 16:18 | 44.82561 | -0.70071 | 172 ft | 6 kts | 283° |
| 2026-05-06 16:18 | 44.82620 | -0.70356 | 173 ft | 71 kts | 287° |
| 2026-05-06 16:18 | 44.82837 | -0.71396 | 169 ft | 146 kts | 286° |
| 2026-05-06 16:18 | 44.83149 | -0.72880 | 746 ft | 161 kts | 286° |
| 2026-05-06 16:19 | 44.83226 | -0.74478 | 1653 ft | 176 kts | 253° |
| 2026-05-06 16:19 | 44.82462 | -0.75874 | 2085 ft | 200 kts | 214° |
| 2026-05-06 16:19 | 44.81049 | -0.76427 | 2480 ft | 226 kts | 178° |
| 2026-05-06 16:19 | 44.79410 | -0.76033 | 2772 ft | 254 kts | 166° |
| 2026-05-06 16:20 | 44.77620 | -0.75393 | 3290 ft | 271 kts | 167° |
| 2026-05-06 16:20 | 44.75772 | -0.74725 | 4119 ft | 277 kts | 168° |
| 2026-05-06 16:20 | 44.73896 | -0.74069 | 5036 ft | 279 kts | 168° |
| 2026-05-06 16:20 | 44.72077 | -0.73077 | 5875 ft | 286 kts | 149° |
| 2026-05-06 16:21 | 44.70582 | -0.71190 | 6697 ft | 291 kts | 126° |
| 2026-05-06 16:21 | 44.69681 | -0.68664 | 7495 ft | 293 kts | 103° |
| 2026-05-06 16:21 | 44.69441 | -0.65804 | 8308 ft | 295 kts | 90° |
| 2026-05-06 16:21 | 44.69357 | -0.62916 | 9136 ft | 298 kts | 91° |
| 2026-05-06 16:22 | 44.69266 | -0.59984 | 9960 ft | 302 kts | 91° |
| 2026-05-06 16:22 | 44.69169 | -0.56990 | 10453 ft | 317 kts | 91° |
| 2026-05-06 16:22 | 44.69064 | -0.53795 | 10665 ft | 340 kts | 91° |
| 2026-05-06 16:22 | 44.68951 | -0.50365 | 10822 ft | 363 kts | 91° |
| 2026-05-06 16:23 | 44.68828 | -0.46721 | 11187 ft | 377 kts | 92° |
| 2026-05-06 16:23 | 44.68701 | -0.43063 | 11839 ft | 382 kts | 92° |
| 2026-05-06 16:23 | 44.68568 | -0.39318 | 12538 ft | 386 kts | 92° |
| 2026-05-06 16:23 | 44.68433 | -0.35530 | 13254 ft | 390 kts | 92° |
| 2026-05-06 16:24 | 44.68290 | -0.31654 | 13916 ft | 393 kts | 92° |
| 2026-05-06 16:24 | 44.68146 | -0.27852 | 14489 ft | 397 kts | 92° |
| 2026-05-06 16:24 | 44.67998 | -0.23969 | 15082 ft | 400 kts | 92° |
| 2026-05-06 16:24 | 44.67850 | -0.20047 | 15672 ft | 403 kts | 93° |
| 2026-05-06 16:25 | 44.67457 | -0.16137 | 16254 ft | 406 kts | 103° |
| 2026-05-06 16:25 | 44.66604 | -0.12338 | 16837 ft | 409 kts | 113° |
| 2026-05-06 16:25 | 44.65367 | -0.08729 | 17440 ft | 412 kts | 117° |
| 2026-05-06 16:25 | 44.64081 | -0.05128 | 18035 ft | 415 kts | 117° |
| 2026-05-06 16:26 | 44.62784 | -0.01476 | 18565 ft | 418 kts | 117° |
| 2026-05-06 16:26 | 44.61487 | 0.02184 | 19048 ft | 421 kts | 117° |
| 2026-05-06 16:26 | 44.60179 | 0.05875 | 19540 ft | 424 kts | 117° |
| 2026-05-06 16:26 | 44.58862 | 0.09592 | 20054 ft | 426 kts | 117° |
| 2026-05-06 16:27 | 44.57540 | 0.13324 | 20524 ft | 429 kts | 117° |
| 2026-05-06 16:27 | 44.56207 | 0.17082 | 20987 ft | 431 kts | 117° |
| 2026-05-06 16:27 | 44.54862 | 0.20862 | 21426 ft | 434 kts | 117° |
| 2026-05-06 16:27 | 44.53509 | 0.24655 | 21857 ft | 436 kts | 117° |
| 2026-05-06 16:28 | 44.52148 | 0.28466 | 22283 ft | 439 kts | 117° |
| 2026-05-06 16:28 | 44.50778 | 0.32298 | 22697 ft | 441 kts | 117° |
| 2026-05-06 16:28 | 44.49418 | 0.36092 | 23081 ft | 443 kts | 117° |
| 2026-05-06 16:28 | 44.48029 | 0.39956 | 23489 ft | 445 kts | 117° |
| 2026-05-06 16:29 | 44.46630 | 0.43839 | 23808 ft | 448 kts | 117° |
| 2026-05-06 16:29 | 44.45221 | 0.47738 | 24137 ft | 449 kts | 117° |
| 2026-05-06 16:29 | 44.43872 | 0.51697 | 24446 ft | 452 kts | 112° |
| 2026-05-06 16:29 | 44.42861 | 0.55868 | 24761 ft | 454 kts | 108° |
| 2026-05-06 16:30 | 44.41903 | 0.60082 | 25054 ft | 456 kts | 109° |
| 2026-05-06 16:30 | 44.41259 | 0.62888 | 25243 ft | 458 kts | 109° |
| 2026-05-06 16:30 | 44.39945 | 0.68568 | 25624 ft | 460 kts | 109° |
| 2026-05-06 16:30 | 44.38951 | 0.72833 | 25904 ft | 462 kts | 109° |
| 2026-05-06 16:31 | 44.37950 | 0.77112 | 26165 ft | 464 kts | 109° |
| 2026-05-06 16:31 | 44.36947 | 0.81403 | 26435 ft | 466 kts | 109° |
| 2026-05-06 16:31 | 44.35943 | 0.85707 | 26669 ft | 467 kts | 109° |
| 2026-05-06 16:31 | 44.34931 | 0.90031 | 26911 ft | 469 kts | 109° |
| 2026-05-06 16:32 | 44.33909 | 0.94370 | 27162 ft | 471 kts | 109° |
| 2026-05-06 16:32 | 44.32884 | 0.98724 | 27393 ft | 472 kts | 109° |
| 2026-05-06 16:32 | 44.31855 | 1.03082 | 27671 ft | 472 kts | 109° |
| 2026-05-06 16:32 | 44.30828 | 1.07426 | 28007 ft | 471 kts | 109° |
| 2026-05-06 16:33 | 44.29801 | 1.11773 | 28327 ft | 471 kts | 110° |
| 2026-05-06 16:33 | 44.28776 | 1.16106 | 28643 ft | 470 kts | 110° |
| 2026-05-06 16:33 | 44.27762 | 1.20384 | 28955 ft | 470 kts | 110° |
| 2026-05-06 16:34 | 44.25707 | 1.29031 | 29587 ft | 470 kts | 110° |
| 2026-05-06 16:34 | 44.24677 | 1.33361 | 29906 ft | 470 kts | 110° |
| 2026-05-06 16:34 | 44.23650 | 1.37676 | 30187 ft | 469 kts | 110° |
| 2026-05-06 16:34 | 44.22617 | 1.41993 | 30442 ft | 469 kts | 111° |
| 2026-05-06 16:35 | 44.21578 | 1.46314 | 30705 ft | 469 kts | 111° |
| 2026-05-06 16:35 | 44.20541 | 1.50622 | 30966 ft | 469 kts | 111° |
| 2026-05-06 16:35 | 44.19503 | 1.54931 | 31228 ft | 469 kts | 111° |
| 2026-05-06 16:35 | 44.18463 | 1.59245 | 31489 ft | 469 kts | 111° |
| 2026-05-06 16:36 | 44.17425 | 1.63552 | 31753 ft | 469 kts | 111° |
| 2026-05-06 16:36 | 44.16387 | 1.67854 | 32021 ft | 469 kts | 111° |
| 2026-05-06 16:36 | 44.15339 | 1.72166 | 32284 ft | 469 kts | 111° |
| 2026-05-06 16:36 | 44.14290 | 1.76459 | 32543 ft | 469 kts | 111° |
| 2026-05-06 16:37 | 44.13238 | 1.80764 | 32792 ft | 470 kts | 112° |
| 2026-05-06 16:37 | 44.12184 | 1.85077 | 33036 ft | 470 kts | 112° |
| 2026-05-06 16:37 | 44.11134 | 1.89377 | 33286 ft | 470 kts | 112° |
| 2026-05-06 16:37 | 44.10082 | 1.93676 | 33541 ft | 470 kts | 112° |
| 2026-05-06 16:38 | 44.09027 | 1.97986 | 33802 ft | 470 kts | 112° |
| 2026-05-06 16:38 | 44.07966 | 2.02298 | 34034 ft | 471 kts | 112° |
| 2026-05-06 16:38 | 44.06904 | 2.06607 | 34243 ft | 471 kts | 112° |
| 2026-05-06 16:38 | 44.05840 | 2.10916 | 34450 ft | 471 kts | 112° |
| 2026-05-06 16:39 | 44.04770 | 2.15233 | 34646 ft | 472 kts | 112° |
| 2026-05-06 16:39 | 44.03701 | 2.19539 | 34841 ft | 472 kts | 113° |
| 2026-05-06 16:39 | 44.02642 | 2.23801 | 35031 ft | 472 kts | 113° |
| 2026-05-06 16:39 | 44.01568 | 2.28126 | 35215 ft | 473 kts | 113° |
| 2026-05-06 16:40 | 44.00495 | 2.32446 | 35405 ft | 473 kts | 113° |
| 2026-05-06 16:40 | 43.99420 | 2.36762 | 35583 ft | 473 kts | 113° |
| 2026-05-06 16:40 | 43.98341 | 2.41078 | 35765 ft | 473 kts | 113° |
| 2026-05-06 16:40 | 43.97260 | 2.45393 | 35938 ft | 473 kts | 113° |
| 2026-05-06 16:41 | 43.96177 | 2.49710 | 36094 ft | 474 kts | 113° |
| 2026-05-06 16:41 | 43.95088 | 2.54029 | 36257 ft | 474 kts | 113° |
| 2026-05-06 16:41 | 43.93995 | 2.58345 | 36414 ft | 474 kts | 114° |
| 2026-05-06 16:41 | 43.92900 | 2.62665 | 36573 ft | 475 kts | 113° |
| 2026-05-06 16:42 | 43.91809 | 2.66986 | 36733 ft | 475 kts | 113° |
| 2026-05-06 16:42 | 43.90719 | 2.71304 | 36885 ft | 475 kts | 113° |
| 2026-05-06 16:42 | 43.89625 | 2.75628 | 36943 ft | 477 kts | 113° |
| 2026-05-06 16:43 | 43.87406 | 2.84336 | 36939 ft | 481 kts | 114° |
| 2026-05-06 16:43 | 43.85165 | 2.93093 | 36938 ft | 482 kts | 114° |
| 2026-05-06 16:44 | 43.82921 | 3.01834 | 36936 ft | 482 kts | 114° |
| 2026-05-06 16:44 | 43.80666 | 3.10586 | 36926 ft | 483 kts | 114° |
| 2026-05-06 16:45 | 43.78403 | 3.19340 | 36923 ft | 483 kts | 114° |
| 2026-05-06 16:45 | 43.76132 | 3.28097 | 36919 ft | 484 kts | 114° |
| 2026-05-06 16:46 | 43.73851 | 3.36858 | 36917 ft | 485 kts | 114° |
| 2026-05-06 16:46 | 43.71561 | 3.45630 | 36915 ft | 485 kts | 115° |
| 2026-05-06 16:47 | 43.69261 | 3.54384 | 36913 ft | 485 kts | 115° |
| 2026-05-06 16:47 | 43.66969 | 3.63079 | 36911 ft | 485 kts | 115° |
| 2026-05-06 16:48 | 43.64663 | 3.71825 | 36914 ft | 484 kts | 115° |
| 2026-05-06 16:48 | 43.62353 | 3.80562 | 36911 ft | 484 kts | 116° |
| 2026-05-06 16:49 | 43.60034 | 3.89269 | 36914 ft | 484 kts | 116° |
| 2026-05-06 16:49 | 43.57293 | 3.97655 | 36908 ft | 473 kts | 129° |
| 2026-05-06 16:50 | 43.53239 | 4.04617 | 36907 ft | 464 kts | 139° |
| 2026-05-06 16:50 | 43.48940 | 4.11248 | 36901 ft | 464 kts | 139° |
| 2026-05-06 16:51 | 43.44651 | 4.17884 | 36901 ft | 464 kts | 139° |
| 2026-05-06 16:51 | 43.40358 | 4.24531 | 36902 ft | 464 kts | 139° |
| 2026-05-06 16:52 | 43.36061 | 4.31160 | 36900 ft | 464 kts | 139° |
| 2026-05-06 16:52 | 43.31760 | 4.37770 | 36900 ft | 464 kts | 139° |
| 2026-05-06 16:53 | 43.27458 | 4.44376 | 36912 ft | 464 kts | 139° |
| 2026-05-06 16:53 | 43.23176 | 4.50917 | 36909 ft | 464 kts | 139° |
| 2026-05-06 16:54 | 43.18856 | 4.57496 | 36913 ft | 464 kts | 139° |
| 2026-05-06 16:54 | 43.14542 | 4.64060 | 36918 ft | 464 kts | 140° |
| 2026-05-06 16:55 | 43.10217 | 4.70630 | 36927 ft | 464 kts | 140° |
| 2026-05-06 16:55 | 43.05893 | 4.77180 | 36924 ft | 464 kts | 140° |
| 2026-05-06 16:56 | 43.01566 | 4.83725 | 36924 ft | 464 kts | 140° |
| 2026-05-06 16:56 | 42.97242 | 4.90259 | 36930 ft | 464 kts | 140° |
| 2026-05-06 16:57 | 42.92908 | 4.96776 | 36932 ft | 463 kts | 140° |
| 2026-05-06 16:57 | 42.88626 | 5.03362 | 36927 ft | 469 kts | 134° |
| 2026-05-06 16:58 | 42.85887 | 5.09863 | 36926 ft | 483 kts | 120° |
| 2026-05-06 16:58 | 42.83218 | 5.18277 | 36918 ft | 484 kts | 121° |
| 2026-05-06 16:59 | 42.80528 | 5.26670 | 36913 ft | 484 kts | 121° |
| 2026-05-06 16:59 | 42.77825 | 5.35062 | 36908 ft | 484 kts | 121° |
| 2026-05-06 17:00 | 42.75125 | 5.43444 | 36913 ft | 484 kts | 121° |
| 2026-05-06 17:00 | 42.72412 | 5.51835 | 36910 ft | 484 kts | 121° |
| 2026-05-06 17:01 | 42.69711 | 5.60160 | 36909 ft | 484 kts | 121° |
| 2026-05-06 17:01 | 42.66986 | 5.68528 | 36908 ft | 484 kts | 121° |
| 2026-05-06 17:02 | 42.64256 | 5.76894 | 36909 ft | 485 kts | 121° |
| 2026-05-06 17:02 | 42.61520 | 5.85262 | 36912 ft | 485 kts | 121° |
| 2026-05-06 17:03 | 42.58771 | 5.93625 | 36904 ft | 485 kts | 122° |
| 2026-05-06 17:03 | 42.56015 | 6.01971 | 36904 ft | 485 kts | 122° |
| 2026-05-06 17:04 | 42.53252 | 6.10318 | 36918 ft | 485 kts | 122° |
| 2026-05-06 17:04 | 42.50487 | 6.18664 | 36917 ft | 485 kts | 122° |
| 2026-05-06 17:05 | 42.47713 | 6.27000 | 36918 ft | 485 kts | 122° |
| 2026-05-06 17:05 | 42.44931 | 6.35328 | 36916 ft | 486 kts | 122° |
| 2026-05-06 17:06 | 42.42139 | 6.43657 | 36932 ft | 486 kts | 122° |
| 2026-05-06 17:06 | 42.39342 | 6.51973 | 36929 ft | 485 kts | 122° |
| 2026-05-06 17:07 | 42.36614 | 6.60337 | 36929 ft | 488 kts | 119° |
| 2026-05-06 17:07 | 42.34294 | 6.69011 | 36929 ft | 492 kts | 115° |
| 2026-05-06 17:08 | 42.32146 | 6.77799 | 36933 ft | 492 kts | 115° |
| 2026-05-06 17:08 | 42.29918 | 6.86527 | 36932 ft | 491 kts | 117° |
| 2026-05-06 17:09 | 42.27602 | 6.95141 | 36934 ft | 491 kts | 117° |
| 2026-05-06 17:09 | 42.25251 | 7.03795 | 36932 ft | 491 kts | 117° |
| 2026-05-06 17:10 | 42.22922 | 7.12461 | 36940 ft | 491 kts | 117° |
| 2026-05-06 17:10 | 42.20596 | 7.21117 | 36941 ft | 491 kts | 117° |
| 2026-05-06 17:11 | 42.18258 | 7.29769 | 36943 ft | 491 kts | 117° |
| 2026-05-06 17:11 | 42.15909 | 7.38412 | 36946 ft | 491 kts | 117° |
| 2026-05-06 17:12 | 42.13557 | 7.47054 | 36951 ft | 491 kts | 117° |
| 2026-05-06 17:12 | 42.11201 | 7.55686 | 36950 ft | 490 kts | 117° |
| 2026-05-06 17:13 | 42.08840 | 7.64292 | 36954 ft | 490 kts | 117° |
| 2026-05-06 17:13 | 42.06472 | 7.72894 | 36953 ft | 490 kts | 117° |
| 2026-05-06 17:14 | 42.04119 | 7.81443 | 36956 ft | 490 kts | 117° |
| 2026-05-06 17:14 | 42.01735 | 7.90018 | 36955 ft | 488 kts | 120° |
| 2026-05-06 17:14 | 42.00200 | 7.94013 | 36952 ft | 475 kts | 131° |
| 2026-05-06 17:15 | 41.98198 | 7.97473 | 36944 ft | 463 kts | 142° |
| 2026-05-06 17:15 | 41.95839 | 8.00322 | 36947 ft | 451 kts | 152° |
| 2026-05-06 17:15 | 41.93216 | 8.02523 | 36944 ft | 439 kts | 162° |
| 2026-05-06 17:15 | 41.90426 | 8.04044 | 36928 ft | 427 kts | 172° |
| 2026-05-06 17:16 | 41.87560 | 8.04895 | 36922 ft | 418 kts | 181° |
| 2026-05-06 17:16 | 41.81798 | 8.05772 | 36935 ft | 417 kts | 181° |
| 2026-05-06 17:17 | 41.76023 | 8.06676 | 36922 ft | 418 kts | 181° |
| 2026-05-06 17:17 | 41.70233 | 8.07587 | 36921 ft | 419 kts | 181° |
| 2026-05-06 17:18 | 41.64435 | 8.08495 | 36928 ft | 420 kts | 181° |
| 2026-05-06 17:18 | 41.58626 | 8.09382 | 36927 ft | 421 kts | 181° |
| 2026-05-06 17:18 | 41.55711 | 8.09828 | 36712 ft | 421 kts | 181° |
| 2026-05-06 17:19 | 41.52800 | 8.10274 | 36446 ft | 421 kts | 181° |
| 2026-05-06 17:19 | 41.49879 | 8.10726 | 36184 ft | 422 kts | 181° |
| 2026-05-06 17:19 | 41.46967 | 8.11177 | 35930 ft | 422 kts | 181° |
| 2026-05-06 17:19 | 41.44054 | 8.11626 | 35673 ft | 422 kts | 181° |
| 2026-05-06 17:20 | 41.41134 | 8.12074 | 35422 ft | 422 kts | 181° |
| 2026-05-06 17:20 | 41.38213 | 8.12525 | 34665 ft | 425 kts | 180° |
| 2026-05-06 17:20 | 41.35272 | 8.12995 | 33769 ft | 427 kts | 180° |
| 2026-05-06 17:20 | 41.32319 | 8.13484 | 32788 ft | 424 kts | 180° |
| 2026-05-06 17:21 | 41.29428 | 8.13977 | 31879 ft | 414 kts | 180° |
| 2026-05-06 17:21 | 41.26595 | 8.14457 | 30924 ft | 407 kts | 180° |
| 2026-05-06 17:21 | 41.23788 | 8.14921 | 29981 ft | 411 kts | 180° |
| 2026-05-06 17:21 | 41.20877 | 8.15386 | 29009 ft | 429 kts | 178° |
| 2026-05-06 17:22 | 41.17904 | 8.16250 | 28098 ft | 446 kts | 169° |
| 2026-05-06 17:22 | 41.14989 | 8.17810 | 27239 ft | 460 kts | 159° |
| 2026-05-06 17:22 | 41.12241 | 8.20079 | 26395 ft | 471 kts | 149° |
| 2026-05-06 17:22 | 41.09749 | 8.22886 | 25588 ft | 480 kts | 140° |
| 2026-05-06 17:23 | 41.07492 | 8.26278 | 24782 ft | 489 kts | 131° |
| 2026-05-06 17:23 | 41.05672 | 8.30021 | 24019 ft | 490 kts | 123° |
| 2026-05-06 17:23 | 41.04007 | 8.33930 | 23224 ft | 486 kts | 123° |
| 2026-05-06 17:23 | 41.02361 | 8.37807 | 22331 ft | 479 kts | 123° |
| 2026-05-06 17:24 | 41.00744 | 8.41626 | 21473 ft | 472 kts | 123° |
| 2026-05-06 17:24 | 40.99149 | 8.45387 | 20634 ft | 465 kts | 123° |
| 2026-05-06 17:24 | 40.97553 | 8.49138 | 19800 ft | 458 kts | 123° |
| 2026-05-06 17:24 | 40.96003 | 8.52776 | 18893 ft | 450 kts | 123° |
| 2026-05-06 17:25 | 40.94495 | 8.56308 | 18271 ft | 445 kts | 123° |
| 2026-05-06 17:25 | 40.92980 | 8.59851 | 17582 ft | 440 kts | 123° |
| 2026-05-06 17:25 | 40.91481 | 8.63353 | 16904 ft | 436 kts | 123° |
| 2026-05-06 17:25 | 40.89989 | 8.66828 | 16244 ft | 432 kts | 123° |
| 2026-05-06 17:26 | 40.88515 | 8.70257 | 15587 ft | 428 kts | 123° |
| 2026-05-06 17:26 | 40.87046 | 8.73669 | 14954 ft | 425 kts | 123° |
| 2026-05-06 17:26 | 40.85589 | 8.77050 | 14327 ft | 421 kts | 122° |
| 2026-05-06 17:26 | 40.84149 | 8.80386 | 13538 ft | 414 kts | 122° |
| 2026-05-06 17:27 | 40.82737 | 8.83621 | 12524 ft | 400 kts | 125° |
| 2026-05-06 17:27 | 40.81064 | 8.86447 | 11712 ft | 380 kts | 137° |
| 2026-05-06 17:27 | 40.79169 | 8.88729 | 11124 ft | 359 kts | 142° |
| 2026-05-06 17:27 | 40.77310 | 8.90888 | 10561 ft | 343 kts | 141° |
| 2026-05-06 17:28 | 40.75606 | 8.92878 | 10318 ft | 320 kts | 141° |
| 2026-05-06 17:28 | 40.73997 | 8.94758 | 10124 ft | 300 kts | 142° |
| 2026-05-06 17:28 | 40.72469 | 8.96536 | 9932 ft | 284 kts | 142° |
| 2026-05-06 17:28 | 40.71028 | 8.98211 | 9753 ft | 270 kts | 142° |
| 2026-05-06 17:29 | 40.69632 | 8.99827 | 9475 ft | 265 kts | 142° |
| 2026-05-06 17:29 | 40.68247 | 9.01423 | 9105 ft | 264 kts | 142° |
| 2026-05-06 17:29 | 40.67001 | 9.03197 | 8742 ft | 266 kts | 122° |
| 2026-05-06 17:29 | 40.66456 | 9.05519 | 8386 ft | 270 kts | 94° |
| 2026-05-06 17:30 | 40.66795 | 9.07925 | 8037 ft | 271 kts | 65° |
| 2026-05-06 17:30 | 40.67793 | 9.10014 | 7689 ft | 269 kts | 56° |
| 2026-05-06 17:30 | 40.68846 | 9.12046 | 7341 ft | 267 kts | 56° |
| 2026-05-06 17:30 | 40.69895 | 9.14009 | 6990 ft | 258 kts | 53° |
| 2026-05-06 17:31 | 40.70950 | 9.15872 | 6655 ft | 249 kts | 54° |
| 2026-05-06 17:31 | 40.71942 | 9.17715 | 6309 ft | 245 kts | 56° |
| 2026-05-06 17:31 | 40.72908 | 9.19543 | 5949 ft | 240 kts | 56° |
| 2026-05-06 17:31 | 40.73849 | 9.21324 | 5600 ft | 234 kts | 56° |
| 2026-05-06 17:32 | 40.74766 | 9.23059 | 5249 ft | 227 kts | 56° |
| 2026-05-06 17:32 | 40.75649 | 9.24729 | 4951 ft | 217 kts | 56° |
| 2026-05-06 17:32 | 40.76493 | 9.26327 | 4576 ft | 205 kts | 56° |
| 2026-05-06 17:32 | 40.77271 | 9.27802 | 4235 ft | 187 kts | 56° |
| 2026-05-06 17:33 | 40.77972 | 9.29130 | 4036 ft | 167 kts | 56° |
| 2026-05-06 17:33 | 40.78615 | 9.30349 | 4008 ft | 158 kts | 55° |
| 2026-05-06 17:33 | 40.79245 | 9.31545 | 3940 ft | 157 kts | 56° |
| 2026-05-06 17:33 | 40.79858 | 9.32707 | 3776 ft | 156 kts | 56° |
| 2026-05-06 17:34 | 40.80486 | 9.33901 | 3551 ft | 156 kts | 56° |
| 2026-05-06 17:34 | 40.81093 | 9.35053 | 3320 ft | 154 kts | 56° |
| 2026-05-06 17:34 | 40.81703 | 9.36212 | 3089 ft | 153 kts | 56° |
| 2026-05-06 17:34 | 40.82316 | 9.37377 | 2849 ft | 152 kts | 55° |
| 2026-05-06 17:35 | 40.82910 | 9.38506 | 2617 ft | 151 kts | 56° |
| 2026-05-06 17:35 | 40.83507 | 9.39640 | 2385 ft | 150 kts | 56° |
| 2026-05-06 17:35 | 40.84100 | 9.40770 | 2144 ft | 149 kts | 56° |
| 2026-05-06 17:36 | 40.85276 | 9.43008 | 1694 ft | 147 kts | 56° |
| 2026-05-06 17:36 | 40.85856 | 9.44113 | 1464 ft | 145 kts | 55° |
| 2026-05-06 17:36 | 40.86425 | 9.45196 | 1251 ft | 143 kts | 54° |
| 2026-05-06 17:36 | 40.86986 | 9.46267 | 1024 ft | 140 kts | 54° |
| 2026-05-06 17:37 | 40.87538 | 9.47318 | 806 ft | 139 kts | 53° |
| 2026-05-06 17:37 | 40.88084 | 9.48359 | 594 ft | 140 kts | 53° |
| 2026-05-06 17:37 | 40.88639 | 9.49422 | 370 ft | 142 kts | 53° |
| 2026-05-06 17:37 | 40.89196 | 9.50499 | 133 ft | 142 kts | 52° |
| 2026-05-06 17:38 | 40.89748 | 9.51529 | 36 ft | 125 kts | 54° |
| 2026-05-06 17:38 | 40.90143 | 9.52291 | 34 ft | 76 kts | 56° |
| 2026-05-06 17:38 | 40.90348 | 9.52670 | 34 ft | 32 kts | 39° |
| 2026-05-06 17:38 | 40.90449 | 9.52613 | 34 ft | 17 kts | 279° |
| 2026-05-06 17:39 | 40.90434 | 9.52459 | 34 ft | 18 kts | 238° |
| 2026-05-06 17:39 | 40.90359 | 9.52313 | 34 ft | 20 kts | 236° |
| 2026-05-06 17:39 | 40.90275 | 9.52152 | 34 ft | 22 kts | 235° |
| 2026-05-06 17:39 | 40.90185 | 9.51975 | 34 ft | 23 kts | 243° |
| 2026-05-06 17:40 | 40.90189 | 9.51836 | 34 ft | 12 kts | 282° |
| 2026-05-06 17:40 | 40.90239 | 9.51796 | 34 ft | 7 kts | 7° |
| 2026-05-06 17:40 | 40.90281 | 9.51774 | 34 ft | 6 kts | 323° |
| 2026-05-06 17:40 | 40.90308 | 9.51772 | 34 ft | 0 kts | 18° |
| 2026-05-06 17:41 | 40.90311 | 9.51773 | 34 ft | 0 kts | 20° |